Portada
METAR-TAF:

METAR-TAF

Aeropuertos :

Aeropuerto Internacional de Glasgow

Glasgow, Escocia

latitud: 55-52N, longitud: 004-26W, altitud: 8 m

Observación

El informe se hizo hace 24 minutos, a las 13:20 UTC
Viento 7 kt del oeste-suroeste, variando entre sur y oeste-noroeste
Temperatura 21°C
Humedad 60%
Presión 1010 hPa
Visibilidad 10 km o más
Escasas nubes a una altura de 3000 ft

METAR: EGPF 141320Z AUTO 24007KT 190V300 9999 FEW030 21/13 Q1010

Hora: 14:44 (13:44 UTC)

Pronóstico

El informe se hizo hace 2 horas y 49 minutos, a las 10:55 UTC
Pronóstico válido del 14 a las 12 UTC al 15 a las 12 UTC
Viento 7 kt del oeste-suroeste
Visibilidad 10 km o más
Nubes dispersas a una altura de 3000 ft
Probabilidad 30% :
Temporalmente
del 15 a las 00 UTC al 15 a las 06 UTC
Visibilidad: 7000 m

TAF: EGPF 141055Z 1412/1512 24007KT 9999 SCT030 PROB30 TEMPO 1500/1506 7000

Observaciones y pronósticos meteorológicos de más de 4000 aeropuertos (mensajes METAR y TAF).

Los puntos amarillos y rojos representan las estaciones disponibles.

Ponga el ratón en el punto deseado para ver el nombre de la estación.

Haga clic para ver las observaciones y los pronósticos meteorológicos.

Para cambiar el mapa : haga clic en los botones verdes con una cruz de color negro para hacer un zoom, en el botón verde con un guión para alejar o en las flechas verdes para mapas adyacentes.


METAR-TAF: